sensor_id;sensor_type;location;lat;lon;timestamp;P1;durP1;ratioP1;P2;durP2;ratioP2
47403;SDS011;33157;51.508;4.288;2022-12-29T00:03:00;1.98;;;0.80;;
47403;SDS011;33157;51.508;4.288;2022-12-29T00:08:07;2.10;;;0.88;;
47403;SDS011;33157;51.508;4.288;2022-12-29T00:13:07;2.67;;;1.15;;
47403;SDS011;33157;51.508;4.288;2022-12-29T00:18:28;2.47;;;0.63;;
47403;SDS011;33157;51.508;4.288;2022-12-29T00:23:28;4.13;;;0.70;;
47403;SDS011;33157;51.508;4.288;2022-12-29T00:28:53;0.98;;;0.63;;
47403;SDS011;33157;51.508;4.288;2022-12-29T00:34:13;1.10;;;0.80;;
47403;SDS011;33157;51.508;4.288;2022-12-29T00:39:44;1.40;;;1.02;;
47403;SDS011;33157;51.508;4.288;2022-12-29T00:45:05;2.45;;;1.10;;
47403;SDS011;33157;51.508;4.288;2022-12-29T00:50:12;3.05;;;1.40;;
47403;SDS011;33157;51.508;4.288;2022-12-29T00:55:12;2.03;;;1.60;;
47403;SDS011;33157;51.508;4.288;2022-12-29T01:00:18;3.65;;;1.65;;
47403;SDS011;33157;51.508;4.288;2022-12-29T01:05:19;1.55;;;1.10;;
47403;SDS011;33157;51.508;4.288;2022-12-29T01:10:19;6.75;;;1.05;;
47403;SDS011;33157;51.508;4.288;2022-12-29T01:15:20;4.32;;;1.63;;
47403;SDS011;33157;51.508;4.288;2022-12-29T01:20:21;6.63;;;1.48;;
47403;SDS011;33157;51.508;4.288;2022-12-29T01:25:27;15.35;;;2.40;;
47403;SDS011;33157;51.508;4.288;2022-12-29T01:30:27;5.70;;;0.82;;
47403;SDS011;33157;51.508;4.288;2022-12-29T01:35:33;9.88;;;1.30;;
47403;SDS011;33157;51.508;4.288;2022-12-29T01:40:34;6.95;;;1.80;;
47403;SDS011;33157;51.508;4.288;2022-12-29T01:45:50;7.55;;;1.33;;
47403;SDS011;33157;51.508;4.288;2022-12-29T01:51:22;7.32;;;1.33;;
47403;SDS011;33157;51.508;4.288;2022-12-29T01:56:25;5.07;;;1.52;;
47403;SDS011;33157;51.508;4.288;2022-12-29T02:01:25;9.63;;;1.20;;
47403;SDS011;33157;51.508;4.288;2022-12-29T02:06:28;4.20;;;0.75;;
47403;SDS011;33157;51.508;4.288;2022-12-29T02:11:32;9.85;;;1.48;;
47403;SDS011;33157;51.508;4.288;2022-12-29T02:32:25;5.15;;;1.20;;
47403;SDS011;33157;51.508;4.288;2022-12-29T02:43:22;4.40;;;1.40;;
47403;SDS011;33157;51.508;4.288;2022-12-29T02:48:37;7.85;;;1.30;;
47403;SDS011;33157;51.508;4.288;2022-12-29T02:53:41;6.47;;;1.23;;
47403;SDS011;33157;51.508;4.288;2022-12-29T02:59:00;6.20;;;1.13;;
47403;SDS011;33157;51.508;4.288;2022-12-29T03:20:36;10.23;;;1.60;;
47403;SDS011;33157;51.508;4.288;2022-12-29T03:25:40;7.05;;;1.50;;
47403;SDS011;33157;51.508;4.288;2022-12-29T03:30:49;5.43;;;1.23;;
47403;SDS011;33157;51.508;4.288;2022-12-29T03:35:50;5.22;;;1.30;;
47403;SDS011;33157;51.508;4.288;2022-12-29T03:40:58;3.87;;;1.30;;
47403;SDS011;33157;51.508;4.288;2022-12-29T03:45:59;8.35;;;1.20;;
47403;SDS011;33157;51.508;4.288;2022-12-29T03:51:05;12.90;;;1.17;;
47403;SDS011;33157;51.508;4.288;2022-12-29T03:56:06;8.35;;;1.75;;
47403;SDS011;33157;51.508;4.288;2022-12-29T04:01:06;9.70;;;1.48;;
47403;SDS011;33157;51.508;4.288;2022-12-29T04:06:10;7.43;;;1.92;;
47403;SDS011;33157;51.508;4.288;2022-12-29T04:11:10;13.18;;;2.33;;
47403;SDS011;33157;51.508;4.288;2022-12-29T04:16:16;9.07;;;1.73;;
47403;SDS011;33157;51.508;4.288;2022-12-29T04:21:16;12.07;;;2.50;;
47403;SDS011;33157;51.508;4.288;2022-12-29T04:26:20;8.98;;;1.83;;
47403;SDS011;33157;51.508;4.288;2022-12-29T04:31:21;8.55;;;1.70;;
47403;SDS011;33157;51.508;4.288;2022-12-29T04:36:21;14.13;;;2.50;;
47403;SDS011;33157;51.508;4.288;2022-12-29T04:41:27;9.82;;;1.83;;
47403;SDS011;33157;51.508;4.288;2022-12-29T04:46:27;15.00;;;2.33;;
47403;SDS011;33157;51.508;4.288;2022-12-29T04:51:34;11.95;;;2.08;;
47403;SDS011;33157;51.508;4.288;2022-12-29T04:56:35;15.15;;;2.72;;
47403;SDS011;33157;51.508;4.288;2022-12-29T05:01:36;11.98;;;1.80;;
47403;SDS011;33157;51.508;4.288;2022-12-29T05:06:41;11.30;;;2.50;;
47403;SDS011;33157;51.508;4.288;2022-12-29T05:11:41;14.15;;;2.05;;
47403;SDS011;33157;51.508;4.288;2022-12-29T05:16:42;13.82;;;2.42;;
47403;SDS011;33157;51.508;4.288;2022-12-29T05:21:43;11.40;;;3.03;;
47403;SDS011;33157;51.508;4.288;2022-12-29T05:26:45;11.23;;;2.15;;
47403;SDS011;33157;51.508;4.288;2022-12-29T05:31:45;14.15;;;2.42;;
47403;SDS011;33157;51.508;4.288;2022-12-29T05:36:46;12.00;;;2.08;;
47403;SDS011;33157;51.508;4.288;2022-12-29T05:41:52;13.27;;;1.88;;
47403;SDS011;33157;51.508;4.288;2022-12-29T05:46:53;10.38;;;2.00;;
47403;SDS011;33157;51.508;4.288;2022-12-29T05:51:53;7.15;;;2.13;;
47403;SDS011;33157;51.508;4.288;2022-12-29T05:56:54;16.05;;;2.75;;
47403;SDS011;33157;51.508;4.288;2022-12-29T06:01:54;8.98;;;1.83;;
47403;SDS011;33157;51.508;4.288;2022-12-29T06:06:55;12.90;;;2.47;;
47403;SDS011;33157;51.508;4.288;2022-12-29T06:11:55;10.27;;;2.60;;
47403;SDS011;33157;51.508;4.288;2022-12-29T06:17:01;11.48;;;2.25;;
47403;SDS011;33157;51.508;4.288;2022-12-29T06:22:02;9.55;;;2.08;;
47403;SDS011;33157;51.508;4.288;2022-12-29T06:27:02;11.30;;;2.08;;
47403;SDS011;33157;51.508;4.288;2022-12-29T06:32:03;9.27;;;2.05;;
47403;SDS011;33157;51.508;4.288;2022-12-29T06:37:04;13.32;;;2.22;;
47403;SDS011;33157;51.508;4.288;2022-12-29T06:42:10;13.68;;;2.90;;
47403;SDS011;33157;51.508;4.288;2022-12-29T06:47:10;9.32;;;2.20;;
47403;SDS011;33157;51.508;4.288;2022-12-29T06:52:11;10.65;;;2.35;;
47403;SDS011;33157;51.508;4.288;2022-12-29T06:57:12;13.88;;;2.00;;
47403;SDS011;33157;51.508;4.288;2022-12-29T07:02:12;15.13;;;2.70;;
47403;SDS011;33157;51.508;4.288;2022-12-29T07:07:31;13.45;;;2.22;;
47403;SDS011;33157;51.508;4.288;2022-12-29T07:17:37;19.40;;;3.00;;
47403;SDS011;33157;51.508;4.288;2022-12-29T07:22:38;14.77;;;3.13;;
47403;SDS011;33157;51.508;4.288;2022-12-29T07:27:44;13.95;;;2.33;;
47403;SDS011;33157;51.508;4.288;2022-12-29T07:32:44;21.88;;;3.55;;
47403;SDS011;33157;51.508;4.288;2022-12-29T07:37:45;16.40;;;2.00;;
47403;SDS011;33157;51.508;4.288;2022-12-29T07:42:45;18.42;;;3.22;;
47403;SDS011;33157;51.508;4.288;2022-12-29T07:47:49;12.23;;;2.25;;
47403;SDS011;33157;51.508;4.288;2022-12-29T07:52:51;10.52;;;2.13;;
47403;SDS011;33157;51.508;4.288;2022-12-29T07:57:52;11.48;;;2.20;;
47403;SDS011;33157;51.508;4.288;2022-12-29T08:02:54;19.60;;;2.83;;
47403;SDS011;33157;51.508;4.288;2022-12-29T08:08:11;15.18;;;2.80;;
47403;SDS011;33157;51.508;4.288;2022-12-29T08:13:11;9.40;;;2.20;;
47403;SDS011;33157;51.508;4.288;2022-12-29T08:18:12;10.10;;;1.70;;
47403;SDS011;33157;51.508;4.288;2022-12-29T08:23:18;13.55;;;2.28;;
47403;SDS011;33157;51.508;4.288;2022-12-29T08:28:24;21.33;;;3.70;;
47403;SDS011;33157;51.508;4.288;2022-12-29T08:33:25;19.27;;;2.40;;
47403;SDS011;33157;51.508;4.288;2022-12-29T08:38:32;10.90;;;2.88;;
47403;SDS011;33157;51.508;4.288;2022-12-29T08:43:32;13.15;;;2.45;;
47403;SDS011;33157;51.508;4.288;2022-12-29T08:48:33;19.48;;;3.78;;
47403;SDS011;33157;51.508;4.288;2022-12-29T08:53:34;16.40;;;2.95;;
47403;SDS011;33157;51.508;4.288;2022-12-29T08:58:34;12.55;;;2.95;;
47403;SDS011;33157;51.508;4.288;2022-12-29T09:03:35;15.13;;;2.47;;
47403;SDS011;33157;51.508;4.288;2022-12-29T09:08:36;19.10;;;3.88;;
47403;SDS011;33157;51.508;4.288;2022-12-29T09:13:37;17.92;;;3.22;;
47403;SDS011;33157;51.508;4.288;2022-12-29T09:18:43;20.08;;;3.70;;
47403;SDS011;33157;51.508;4.288;2022-12-29T09:23:44;17.05;;;3.67;;
47403;SDS011;33157;51.508;4.288;2022-12-29T09:28:50;28.42;;;4.78;;
47403;SDS011;33157;51.508;4.288;2022-12-29T09:33:51;27.88;;;4.82;;
47403;SDS011;33157;51.508;4.288;2022-12-29T09:38:57;17.88;;;3.83;;
47403;SDS011;33157;51.508;4.288;2022-12-29T09:44:11;11.00;;;2.35;;
47403;SDS011;33157;51.508;4.288;2022-12-29T10:00:09;18.70;;;3.65;;
47403;SDS011;33157;51.508;4.288;2022-12-29T10:10:35;19.80;;;3.70;;
47403;SDS011;33157;51.508;4.288;2022-12-29T10:20:52;17.58;;;3.22;;
47403;SDS011;33157;51.508;4.288;2022-12-29T10:25:56;20.58;;;3.53;;
47403;SDS011;33157;51.508;4.288;2022-12-29T10:30:57;20.02;;;4.72;;
47403;SDS011;33157;51.508;4.288;2022-12-29T10:35:59;17.37;;;3.37;;
47403;SDS011;33157;51.508;4.288;2022-12-29T10:41:21;24.70;;;4.18;;
47403;SDS011;33157;51.508;4.288;2022-12-29T10:46:30;19.50;;;3.50;;
47403;SDS011;33157;51.508;4.288;2022-12-29T10:51:35;20.33;;;3.50;;
47403;SDS011;33157;51.508;4.288;2022-12-29T10:56:39;25.15;;;4.18;;
47403;SDS011;33157;51.508;4.288;2022-12-29T11:01:53;22.83;;;4.03;;
47403;SDS011;33157;51.508;4.288;2022-12-29T11:07:22;26.52;;;4.28;;
47403;SDS011;33157;51.508;4.288;2022-12-29T11:12:25;26.30;;;6.70;;
47403;SDS011;33157;51.508;4.288;2022-12-29T11:17:33;26.92;;;3.80;;
47403;SDS011;33157;51.508;4.288;2022-12-29T11:22:44;20.73;;;3.28;;
47403;SDS011;33157;51.508;4.288;2022-12-29T11:27:59;25.73;;;5.15;;
47403;SDS011;33157;51.508;4.288;2022-12-29T11:33:02;25.08;;;4.13;;
47403;SDS011;33157;51.508;4.288;2022-12-29T11:38:03;21.45;;;4.13;;
47403;SDS011;33157;51.508;4.288;2022-12-29T11:43:04;21.95;;;3.75;;
47403;SDS011;33157;51.508;4.288;2022-12-29T11:48:09;26.23;;;5.07;;
47403;SDS011;33157;51.508;4.288;2022-12-29T11:58:28;22.08;;;3.65;;
47403;SDS011;33157;51.508;4.288;2022-12-29T12:03:32;19.92;;;4.22;;
47403;SDS011;33157;51.508;4.288;2022-12-29T12:08:37;14.80;;;2.65;;
47403;SDS011;33157;51.508;4.288;2022-12-29T12:14:12;14.15;;;2.42;;
47403;SDS011;33157;51.508;4.288;2022-12-29T12:34:52;15.88;;;2.72;;
47403;SDS011;33157;51.508;4.288;2022-12-29T12:45:31;12.60;;;2.67;;
47403;SDS011;33157;51.508;4.288;2022-12-29T12:50:58;23.58;;;3.25;;
47403;SDS011;33157;51.508;4.288;2022-12-29T13:18:07;15.63;;;2.92;;
47403;SDS011;33157;51.508;4.288;2022-12-29T13:39:02;18.83;;;4.27;;
47403;SDS011;33157;51.508;4.288;2022-12-29T13:44:05;14.45;;;2.90;;
47403;SDS011;33157;51.508;4.288;2022-12-29T13:49:16;15.30;;;3.83;;
47403;SDS011;33157;51.508;4.288;2022-12-29T13:54:35;14.00;;;3.00;;
47403;SDS011;33157;51.508;4.288;2022-12-29T14:04:57;12.38;;;2.38;;
47403;SDS011;33157;51.508;4.288;2022-12-29T14:10:18;11.05;;;1.98;;
47403;SDS011;33157;51.508;4.288;2022-12-29T14:15:28;11.18;;;1.83;;
47403;SDS011;33157;51.508;4.288;2022-12-29T14:20:34;13.13;;;2.03;;
47403;SDS011;33157;51.508;4.288;2022-12-29T14:25:52;9.20;;;2.13;;
47403;SDS011;33157;51.508;4.288;2022-12-29T14:31:04;11.90;;;1.75;;
47403;SDS011;33157;51.508;4.288;2022-12-29T14:41:29;9.50;;;2.22;;
47403;SDS011;33157;51.508;4.288;2022-12-29T14:46:42;5.25;;;1.25;;
47403;SDS011;33157;51.508;4.288;2022-12-29T14:51:50;9.68;;;1.77;;
47403;SDS011;33157;51.508;4.288;2022-12-29T14:56:52;5.90;;;1.55;;
47403;SDS011;33157;51.508;4.288;2022-12-29T15:01:57;11.93;;;1.52;;
47403;SDS011;33157;51.508;4.288;2022-12-29T15:07:00;10.57;;;2.80;;
47403;SDS011;33157;51.508;4.288;2022-12-29T15:17:30;14.52;;;2.35;;
47403;SDS011;33157;51.508;4.288;2022-12-29T15:22:43;12.95;;;2.15;;
47403;SDS011;33157;51.508;4.288;2022-12-29T15:27:50;7.70;;;1.58;;
47403;SDS011;33157;51.508;4.288;2022-12-29T15:32:51;7.82;;;1.45;;
47403;SDS011;33157;51.508;4.288;2022-12-29T15:37:53;7.88;;;1.40;;
47403;SDS011;33157;51.508;4.288;2022-12-29T15:48:18;13.75;;;2.45;;
47403;SDS011;33157;51.508;4.288;2022-12-29T15:53:23;7.50;;;1.80;;
47403;SDS011;33157;51.508;4.288;2022-12-29T15:58:39;10.65;;;2.58;;
47403;SDS011;33157;51.508;4.288;2022-12-29T16:03:42;8.68;;;2.33;;
47403;SDS011;33157;51.508;4.288;2022-12-29T16:08:54;12.17;;;2.87;;
47403;SDS011;33157;51.508;4.288;2022-12-29T16:13:56;11.65;;;2.50;;
47403;SDS011;33157;51.508;4.288;2022-12-29T16:19:08;9.95;;;2.50;;
47403;SDS011;33157;51.508;4.288;2022-12-29T16:24:13;14.95;;;2.33;;
47403;SDS011;33157;51.508;4.288;2022-12-29T16:29:16;11.80;;;2.90;;
47403;SDS011;33157;51.508;4.288;2022-12-29T16:34:31;11.93;;;2.58;;
47403;SDS011;33157;51.508;4.288;2022-12-29T16:39:41;11.32;;;2.08;;
47403;SDS011;33157;51.508;4.288;2022-12-29T16:44:43;12.80;;;2.05;;
47403;SDS011;33157;51.508;4.288;2022-12-29T16:49:46;9.02;;;2.10;;
47403;SDS011;33157;51.508;4.288;2022-12-29T16:54:51;11.32;;;2.13;;
47403;SDS011;33157;51.508;4.288;2022-12-29T17:00:00;14.10;;;2.92;;
47403;SDS011;33157;51.508;4.288;2022-12-29T17:05:10;14.50;;;2.22;;
47403;SDS011;33157;51.508;4.288;2022-12-29T17:10:13;14.20;;;2.65;;
47403;SDS011;33157;51.508;4.288;2022-12-29T17:15:27;9.10;;;2.40;;
47403;SDS011;33157;51.508;4.288;2022-12-29T17:20:34;15.15;;;2.70;;
47403;SDS011;33157;51.508;4.288;2022-12-29T17:25:35;14.32;;;2.85;;
47403;SDS011;33157;51.508;4.288;2022-12-29T17:30:48;16.10;;;3.00;;
47403;SDS011;33157;51.508;4.288;2022-12-29T17:35:49;17.25;;;2.90;;
47403;SDS011;33157;51.508;4.288;2022-12-29T17:40:50;20.15;;;4.03;;
47403;SDS011;33157;51.508;4.288;2022-12-29T17:45:55;14.40;;;2.40;;
47403;SDS011;33157;51.508;4.288;2022-12-29T17:50:57;21.08;;;3.00;;
47403;SDS011;33157;51.508;4.288;2022-12-29T17:55:57;21.88;;;4.32;;
47403;SDS011;33157;51.508;4.288;2022-12-29T18:00:59;17.45;;;3.08;;
47403;SDS011;33157;51.508;4.288;2022-12-29T18:06:01;24.58;;;3.33;;
47403;SDS011;33157;51.508;4.288;2022-12-29T18:11:05;25.42;;;3.88;;
47403;SDS011;33157;51.508;4.288;2022-12-29T18:16:11;21.85;;;4.00;;
47403;SDS011;33157;51.508;4.288;2022-12-29T18:21:14;26.17;;;5.95;;
47403;SDS011;33157;51.508;4.288;2022-12-29T18:26:24;23.48;;;4.03;;
47403;SDS011;33157;51.508;4.288;2022-12-29T18:31:28;19.67;;;3.42;;
47403;SDS011;33157;51.508;4.288;2022-12-29T18:41:30;25.30;;;3.55;;
47403;SDS011;33157;51.508;4.288;2022-12-29T18:46:31;30.35;;;3.45;;
47403;SDS011;33157;51.508;4.288;2022-12-29T18:51:31;21.75;;;3.97;;
47403;SDS011;33157;51.508;4.288;2022-12-29T18:56:37;21.10;;;4.35;;
47403;SDS011;33157;51.508;4.288;2022-12-29T19:01:43;25.20;;;3.58;;
47403;SDS011;33157;51.508;4.288;2022-12-29T19:06:44;19.35;;;4.05;;
47403;SDS011;33157;51.508;4.288;2022-12-29T19:11:50;22.20;;;3.00;;
47403;SDS011;33157;51.508;4.288;2022-12-29T19:16:56;17.73;;;3.78;;
47403;SDS011;33157;51.508;4.288;2022-12-29T19:21:57;19.45;;;3.55;;
47403;SDS011;33157;51.508;4.288;2022-12-29T19:26:58;20.50;;;4.38;;
47403;SDS011;33157;51.508;4.288;2022-12-29T19:31:58;15.48;;;3.28;;
47403;SDS011;33157;51.508;4.288;2022-12-29T19:36:59;17.85;;;3.63;;
47403;SDS011;33157;51.508;4.288;2022-12-29T19:41:59;19.13;;;3.47;;
47403;SDS011;33157;51.508;4.288;2022-12-29T19:47:12;18.77;;;3.25;;
47403;SDS011;33157;51.508;4.288;2022-12-29T19:52:13;16.83;;;3.63;;
47403;SDS011;33157;51.508;4.288;2022-12-29T19:57:13;15.70;;;2.90;;
47403;SDS011;33157;51.508;4.288;2022-12-29T20:02:21;18.05;;;3.00;;
47403;SDS011;33157;51.508;4.288;2022-12-29T20:07:26;17.35;;;2.60;;
47403;SDS011;33157;51.508;4.288;2022-12-29T20:12:32;19.40;;;3.10;;
47403;SDS011;33157;51.508;4.288;2022-12-29T20:17:34;16.75;;;3.63;;
47403;SDS011;33157;51.508;4.288;2022-12-29T20:22:40;15.65;;;2.67;;
47403;SDS011;33157;51.508;4.288;2022-12-29T20:27:41;14.45;;;3.17;;
47403;SDS011;33157;51.508;4.288;2022-12-29T20:32:41;13.55;;;2.78;;
47403;SDS011;33157;51.508;4.288;2022-12-29T20:37:48;11.05;;;2.30;;
47403;SDS011;33157;51.508;4.288;2022-12-29T20:42:48;17.42;;;2.85;;
47403;SDS011;33157;51.508;4.288;2022-12-29T20:47:49;14.57;;;2.92;;
47403;SDS011;33157;51.508;4.288;2022-12-29T20:52:52;12.75;;;2.92;;
47403;SDS011;33157;51.508;4.288;2022-12-29T20:57:53;10.82;;;2.80;;
47403;SDS011;33157;51.508;4.288;2022-12-29T21:03:05;21.58;;;4.30;;
47403;SDS011;33157;51.508;4.288;2022-12-29T21:08:06;15.88;;;2.40;;
47403;SDS011;33157;51.508;4.288;2022-12-29T21:13:12;21.02;;;4.45;;
47403;SDS011;33157;51.508;4.288;2022-12-29T21:18:13;15.13;;;2.22;;
47403;SDS011;33157;51.508;4.288;2022-12-29T21:23:19;18.55;;;3.88;;
47403;SDS011;33157;51.508;4.288;2022-12-29T21:28:20;21.77;;;3.47;;
47403;SDS011;33157;51.508;4.288;2022-12-29T21:33:30;14.87;;;2.87;;
47403;SDS011;33157;51.508;4.288;2022-12-29T21:38:31;17.30;;;3.20;;
47403;SDS011;33157;51.508;4.288;2022-12-29T21:43:31;13.23;;;2.42;;
47403;SDS011;33157;51.508;4.288;2022-12-29T21:48:37;21.65;;;3.88;;
47403;SDS011;33157;51.508;4.288;2022-12-29T21:53:39;13.05;;;2.90;;
47403;SDS011;33157;51.508;4.288;2022-12-29T21:58:46;13.05;;;1.90;;
47403;SDS011;33157;51.508;4.288;2022-12-29T22:04:12;14.63;;;2.10;;
47403;SDS011;33157;51.508;4.288;2022-12-29T22:09:45;11.70;;;2.15;;
47403;SDS011;33157;51.508;4.288;2022-12-29T22:15:13;15.00;;;2.92;;
47403;SDS011;33157;51.508;4.288;2022-12-29T22:20:14;11.18;;;2.13;;
47403;SDS011;33157;51.508;4.288;2022-12-29T22:25:16;11.87;;;2.63;;
47403;SDS011;33157;51.508;4.288;2022-12-29T22:30:22;7.53;;;2.17;;
47403;SDS011;33157;51.508;4.288;2022-12-29T22:35:22;8.10;;;2.05;;
47403;SDS011;33157;51.508;4.288;2022-12-29T22:40:24;12.35;;;2.33;;
47403;SDS011;33157;51.508;4.288;2022-12-29T22:45:24;19.17;;;2.60;;
47403;SDS011;33157;51.508;4.288;2022-12-29T22:50:37;17.65;;;3.30;;
47403;SDS011;33157;51.508;4.288;2022-12-29T22:55:38;13.55;;;2.17;;
47403;SDS011;33157;51.508;4.288;2022-12-29T23:00:39;14.75;;;3.22;;
47403;SDS011;33157;51.508;4.288;2022-12-29T23:05:54;11.57;;;3.00;;
47403;SDS011;33157;51.508;4.288;2022-12-29T23:10:55;11.13;;;2.40;;
47403;SDS011;33157;51.508;4.288;2022-12-29T23:16:02;17.00;;;2.40;;
47403;SDS011;33157;51.508;4.288;2022-12-29T23:21:03;11.10;;;2.42;;
47403;SDS011;33157;51.508;4.288;2022-12-29T23:26:09;15.43;;;2.45;;
47403;SDS011;33157;51.508;4.288;2022-12-29T23:31:17;16.17;;;3.05;;
47403;SDS011;33157;51.508;4.288;2022-12-29T23:36:19;16.30;;;2.55;;
47403;SDS011;33157;51.508;4.288;2022-12-29T23:41:23;13.45;;;2.20;;
47403;SDS011;33157;51.508;4.288;2022-12-29T23:46:24;13.68;;;2.63;;
47403;SDS011;33157;51.508;4.288;2022-12-29T23:51:25;14.32;;;2.58;;
47403;SDS011;33157;51.508;4.288;2022-12-29T23:56:26;13.50;;;3.00;;
